Time;durP1;ratioP1;P1;durP2;ratioP2;P2;SDS_P1;SDS_P2;PMS_P1;PMS_P2;Temp;Humidity;BMP_temperature;BMP_pressure;BME280_temperature;BME280_humidity;BME280_pressure;Samples;Min_cycle;Max_cycle;Signal;HPM_P1;HPM_P2
2022/08/19 00:00:54;;;;;;;4.07;1.85;;;;;;;23.35;73.43;100078.06;4923415;29;20047;-84
2022/08/19 00:03:39;;;;;;;12.63;2.38;;;;;;;23.16;74.06;100089.81;4932314;29;20046;-84
2022/08/19 00:06:24;;;;;;;9.40;2.15;;;;;;;23.00;75.88;100102.28;4940694;29;20039;-84
2022/08/19 00:09:12;;;;;;;1.75;0.90;;;;;;;23.13;74.88;100093.41;4931906;29;20070;-83
2022/08/19 00:11:59;;;;;;;7.28;2.17;;;;;;;23.23;74.86;100061.97;4947900;29;20062;-83
2022/08/19 00:14:44;;;;;;;3.70;1.35;;;;;;;23.36;73.38;100010.25;4954394;29;20051;-84
2022/08/19 00:17:29;;;;;;;3.67;1.10;;;;;;;23.47;73.16;99958.16;4962498;29;20043;-84
2022/08/19 00:20:18;;;;;;;3.92;1.70;;;;;;;23.56;72.29;99930.69;4936546;29;20058;-84
2022/08/19 00:23:03;;;;;;;2.33;1.00;;;;;;;23.73;71.57;99931.56;4931281;29;20047;-84
2022/08/19 00:25:48;;;;;;;5.55;1.25;;;;;;;23.88;70.95;99946.75;4943029;29;20413;-84
2022/08/19 00:28:35;;;;;;;3.95;1.00;;;;;;;24.02;70.55;99956.84;4942924;29;20515;-83
2022/08/19 00:31:20;;;;;;;6.25;1.17;;;;;;;23.99;70.53;99957.69;4912095;29;20055;-83
2022/08/19 00:34:05;;;;;;;7.75;1.40;;;;;;;23.96;70.30;99976.00;4923145;29;20117;-82
2022/08/19 00:36:50;;;;;;;12.38;3.20;;;;;;;22.76;75.16;100022.94;4913419;29;20067;-83
2022/08/19 00:39:36;;;;;;;5.18;2.58;;;;;;;21.74;81.92;100057.91;4925293;29;20544;-82
2022/08/19 00:42:21;;;;;;;10.15;2.83;;;;;;;21.39;84.14;100052.59;4933461;29;20051;-82
2022/08/19 00:45:16;;;;;;;15.32;3.50;;;;;;;21.37;83.75;100044.72;4913122;29;20051;-83
2022/08/19 00:48:06;;;;;;;10.07;3.63;;;;;;;21.47;82.36;100037.56;4924664;29;20055;-84
2022/08/19 00:50:54;;;;;;;5.20;2.83;;;;;;;21.48;83.01;100048.22;4909854;29;20051;-83
2022/08/19 00:53:39;;;;;;;5.75;3.67;;;;;;;21.32;81.98;100079.13;4912814;29;20129;-83
2022/08/19 00:56:26;;;;;;;7.68;3.25;;;;;;;21.40;81.73;100081.84;4924957;29;20063;-84
2022/08/19 00:59:12;;;;;;;7.72;2.88;;;;;;;21.42;83.52;100093.31;4954136;29;20055;-84
2022/08/19 01:01:57;;;;;;;13.27;4.32;;;;;;;20.97;87.33;100108.88;4944007;29;20055;-84
2022/08/19 01:04:42;;;;;;;6.15;3.78;;;;;;;20.78;88.37;100126.69;4947183;29;20046;-84
2022/08/19 01:07:27;;;;;;;13.75;5.57;;;;;;;20.85;86.61;100143.25;4943419;29;20051;-84
2022/08/19 01:10:18;;;;;;;8.90;4.30;;;;;;;20.96;85.90;100130.22;4949277;29;20051;-84
2022/08/19 01:13:04;;;;;;;10.75;4.05;;;;;;;21.02;84.74;100134.16;4912596;29;20047;-83
2022/08/19 01:15:53;;;;;;;15.43;4.63;;;;;;;21.08;84.47;100140.81;4906806;29;20048;-85
2022/08/19 01:18:41;;;;;;;11.98;3.15;;;;;;;21.03;86.19;100126.63;4907352;29;20044;-82
2022/08/19 01:21:34;;;;;;;21.98;3.58;;;;;;;21.19;84.37;100111.19;4920703;29;20043;-82
2022/08/19 01:24:19;;;;;;;10.82;2.92;;;;;;;21.16;83.72;100106.47;4932258;29;20047;-81
2022/08/19 01:27:06;;;;;;;10.57;3.03;;;;;;;21.03;84.20;100115.59;4938126;29;20048;-81
2022/08/19 01:29:51;;;;;;;6.68;2.97;;;;;;;21.00;84.58;100135.72;4939255;29;20043;-81
2022/08/19 01:32:36;;;;;;;7.80;3.67;;;;;;;20.96;85.54;100143.25;4939877;29;20059;-82
2022/08/19 01:35:25;;;;;;;8.27;3.13;;;;;;;20.89;86.24;100141.28;4940120;29;20051;-81
2022/08/19 01:38:20;;;;;;;8.35;3.10;;;;;;;21.22;84.62;100123.44;4938500;29;20054;-82
2022/08/19 01:41:05;;;;;;;9.30;3.33;;;;;;;21.21;84.56;100113.56;4943455;29;20051;-81
2022/08/19 01:43:52;;;;;;;11.25;4.20;;;;;;;21.21;84.83;100117.13;4929953;29;20054;-81
2022/08/19 01:46:37;;;;;;;10.65;4.03;;;;;;;21.04;85.98;100120.69;4932492;29;20066;-82
2022/08/19 01:49:24;;;;;;;9.68;4.13;;;;;;;21.11;85.93;100131.72;4936594;29;20133;-81
2022/08/19 01:52:09;;;;;;;6.97;3.72;;;;;;;21.04;86.45;100134.50;4949797;29;20540;-82
2022/08/19 01:54:54;;;;;;;11.88;4.90;;;;;;;20.93;87.57;100128.22;4940428;29;20121;-84
2022/08/19 01:57:42;;;;;;;15.80;4.93;;;;;;;20.92;87.49;100112.84;4929616;29;20051;-83
2022/08/19 02:00:31;;;;;;;9.93;4.00;;;;;;;21.16;86.15;100105.69;4927811;29;20047;-83
2022/08/19 02:03:16;;;;;;;6.82;4.00;;;;;;;21.17;85.46;100080.41;4923141;29;20047;-83
2022/08/19 02:06:02;;;;;;;12.90;3.75;;;;;;;21.21;85.68;100064.56;4910382;29;20055;-82
2022/08/19 02:08:47;;;;;;;10.90;5.00;;;;;;;21.27;85.09;100054.66;4909193;29;20048;-82
2022/08/19 02:11:35;;;;;;;15.95;2.90;;;;;;;21.53;83.66;100053.31;4925412;29;20044;-83
2022/08/19 02:14:20;;;;;;;3.78;1.67;;;;;;;21.90;81.90;100052.63;4935522;29;20420;-83
2022/08/19 02:17:05;;;;;;;4.63;2.00;;;;;;;22.28;79.97;100055.50;4940085;29;20413;-82
2022/08/19 02:19:49;;;;;;;5.80;1.92;;;;;;;22.47;78.79;100057.69;4940015;29;20047;-84
2022/08/19 02:22:35;;;;;;;5.45;2.47;;;;;;;22.71;77.94;100058.63;4930606;29;20054;-85
2022/08/19 02:25:20;;;;;;;5.63;2.35;;;;;;;22.83;76.62;100033.94;4928879;29;20046;-84
2022/08/19 02:28:05;;;;;;;7.30;2.60;;;;;;;22.82;75.83;100037.91;4941872;29;20051;-85
2022/08/19 02:30:50;;;;;;;12.15;2.63;;;;;;;22.86;75.82;100035.09;4915213;29;20063;-85
2022/08/19 02:33:35;;;;;;;7.78;2.63;;;;;;;22.92;75.38;100036.22;4922317;29;20048;-83
2022/08/19 02:36:20;;;;;;;8.15;2.53;;;;;;;22.98;75.00;100040.88;4922423;29;20425;-83
2022/08/19 02:39:05;;;;;;;7.10;2.75;;;;;;;23.05;74.98;100040.03;4912461;29;20055;-83
2022/08/19 02:41:51;;;;;;;7.18;2.67;;;;;;;23.15;74.36;100066.03;4923857;29;20058;-82
2022/08/19 02:44:36;;;;;;;6.78;2.70;;;;;;;22.92;74.94;100080.56;4912886;29;20042;-82
2022/08/19 02:47:22;;;;;;;8.98;3.22;;;;;;;22.94;74.85;100070.66;4938452;29;20046;-82
2022/08/19 02:50:07;;;;;;;11.57;3.70;;;;;;;22.84;75.34;100073.56;4959159;28;20046;-83
2022/08/19 02:52:52;;;;;;;6.80;3.10;;;;;;;22.76;75.72;100067.28;4934165;29;20039;-82
2022/08/19 02:55:43;;;;;;;8.63;2.35;;;;;;;22.62;76.29;100056.34;4945443;29;20411;-82
2022/08/19 02:58:28;;;;;;;9.30;4.28;;;;;;;22.52;76.87;100054.47;4931961;29;20058;-83
2022/08/19 03:01:29;;;;;;;9.02;3.40;;;;;;;22.33;77.10;100049.53;4944251;29;20075;-82
2022/08/19 03:04:15;;;;;;;5.97;2.70;;;;;;;22.35;77.57;100056.22;4933116;29;20516;-82
2022/08/19 03:07:00;;;;;;;5.90;2.05;;;;;;;22.51;77.28;100061.19;4944371;29;20054;-82
2022/08/19 03:09:45;;;;;;;6.57;1.75;;;;;;;22.64;76.50;100061.47;4932800;29;20051;-83
2022/08/19 03:12:30;;;;;;;13.88;2.83;;;;;;;22.80;75.74;100068.06;4928016;29;20059;-83
2022/08/19 03:15:15;;;;;;;8.70;2.42;;;;;;;22.94;75.05;100078.97;4913629;29;20051;-83
2022/08/19 03:18:00;;;;;;;7.30;2.63;;;;;;;22.99;73.85;100080.50;4911893;29;20055;-83
2022/08/19 03:20:48;;;;;;;7.07;2.45;;;;;;;22.68;74.23;100079.63;4911009;29;20052;-82
2022/08/19 03:23:34;;;;;;;9.48;3.25;;;;;;;22.63;74.45;100080.09;4945074;29;20055;-83
2022/08/19 03:26:19;;;;;;;7.47;2.58;;;;;;;22.62;75.30;100075.75;4930459;29;20051;-83
2022/08/19 03:29:05;;;;;;;12.55;2.42;;;;;;;22.74;74.91;100083.56;4944337;29;20409;-82
2022/08/19 03:31:51;;;;;;;4.65;1.83;;;;;;;22.79;74.81;100085.88;4927074;29;20060;-83
2022/08/19 03:34:37;;;;;;;6.55;1.50;;;;;;;22.88;74.41;100080.63;4924855;29;20051;-83
2022/08/19 03:37:22;;;;;;;5.93;1.95;;;;;;;23.00;73.89;100077.31;4914097;29;20409;-82
2022/08/19 03:40:07;;;;;;;11.70;3.75;;;;;;;23.11;72.96;100082.72;4924852;29;20433;-83
2022/08/19 03:42:52;;;;;;;3.03;1.83;;;;;;;23.19;72.70;100094.53;4936384;29;20043;-85
2022/08/19 03:45:37;;;;;;;10.55;3.83;;;;;;;23.16;71.59;100103.69;4944518;29;20074;-85
2022/08/19 03:48:22;;;;;;;11.18;2.22;;;;;;;23.22;72.01;100121.41;4932712;29;20047;-85
2022/08/19 03:51:14;;;;;;;7.35;2.10;;;;;;;23.21;72.34;100133.75;4931364;29;20044;-85
2022/08/19 03:54:02;;;;;;;4.97;1.75;;;;;;;23.20;72.37;100146.03;4926880;29;20051;-84
2022/08/19 03:56:49;;;;;;;7.25;1.77;;;;;;;23.29;72.31;100163.75;4928672;28;20063;-85
2022/08/19 03:59:38;;;;;;;6.05;1.77;;;;;;;23.37;71.90;100167.22;4932988;29;20530;-85
2022/08/19 04:02:23;;;;;;;5.15;1.60;;;;;;;23.44;71.06;100169.91;4936475;29;20054;-85
2022/08/19 04:05:08;;;;;;;4.72;1.40;;;;;;;23.53;70.97;100192.41;4950610;29;20059;-84
2022/08/19 04:07:53;;;;;;;6.65;1.50;;;;;;;23.58;70.40;100191.16;4947829;29;20050;-82
2022/08/19 04:10:40;;;;;;;3.33;1.33;;;;;;;23.60;70.30;100189.56;4961421;29;20046;-83
2022/08/19 04:13:25;;;;;;;9.35;1.98;;;;;;;23.65;69.99;100193.88;4937840;29;20074;-82
2022/08/19 04:16:11;;;;;;;10.85;1.95;;;;;;;23.78;69.59;100198.44;4925962;29;20050;-82
2022/08/19 04:18:59;;;;;;;8.07;1.98;;;;;;;23.84;69.06;100209.88;4924824;29;20046;-82
2022/08/19 04:21:48;;;;;;;7.28;2.38;;;;;;;23.84;68.72;100229.31;4930521;29;20047;-82
2022/08/19 04:24:34;;;;;;;7.18;2.10;;;;;;;23.66;69.84;100248.19;4942956;29;20423;-83
2022/08/19 04:27:19;;;;;;;10.13;2.10;;;;;;;23.71;69.56;100258.84;4959203;29;20531;-83
2022/08/19 04:30:05;;;;;;;6.05;2.35;;;;;;;23.45;70.44;100265.88;4978819;23;20554;-81
2022/08/19 04:32:50;;;;;;;9.10;3.13;;;;;;;23.57;70.25;100275.69;4953510;28;20046;-80
2022/08/19 04:35:38;;;;;;;8.80;2.55;;;;;;;23.73;69.64;100279.44;4931802;29;20515;-80
2022/08/19 04:38:23;;;;;;;9.55;2.63;;;;;;;23.68;71.72;100277.09;4952763;28;20042;-80
2022/08/19 04:44:12;;;;;;;9.27;2.42;;;;;;;22.71;80.76;100263.78;4926850;29;20036;-79
2022/08/19 04:46:57;;;;;;;11.00;2.17;;;;;;;22.78;77.05;100253.44;4933281;29;20058;-78
2022/08/19 04:49:42;;;;;;;8.90;2.30;;;;;;;22.94;75.48;100245.38;4944396;29;20531;-80
2022/08/19 04:52:27;;;;;;;7.57;2.65;;;;;;;23.16;74.24;100234.06;4949056;29;20397;-78
2022/08/19 04:55:14;;;;;;;5.72;2.17;;;;;;;23.36;72.98;100223.94;4936815;29;20547;-79
2022/08/19 04:57:59;;;;;;;7.97;2.65;;;;;;;23.39;72.83;100212.00;4921335;29;20047;-80
2022/08/19 05:00:44;;;;;;;6.43;2.60;;;;;;;23.41;72.42;100199.31;4942772;29;20051;-78
2022/08/19 05:03:33;;;;;;;14.73;3.78;;;;;;;23.44;72.49;100190.13;4954728;29;20062;-78
2022/08/19 05:06:20;;;;;;;10.63;3.22;;;;;;;23.37;72.71;100181.88;4935533;29;20044;-80
2022/08/19 05:09:06;;;;;;;5.13;3.03;;;;;;;23.06;74.68;100171.16;4921467;29;20051;-79
2022/08/19 05:11:53;;;;;;;8.50;3.45;;;;;;;22.77;76.01;100162.34;4936313;29;20051;-79
2022/08/19 05:14:37;;;;;;;8.93;3.35;;;;;;;22.76;76.29;100161.56;4936156;29;20532;-80
2022/08/19 05:17:22;;;;;;;8.48;3.92;;;;;;;23.05;74.80;100166.81;4936527;29;20055;-79
2022/08/19 05:23:15;;;;;;;7.10;2.93;;;;;;;23.48;72.72;100158.78;4949481;29;20050;-80
2022/08/19 05:26:00;;;;;;;6.75;3.47;;;;;;;23.56;71.76;100160.28;4954236;29;20286;-78
2022/08/19 05:28:44;;;;;;;;;;;;;;;23.48;72.30;100159.56;4945671;29;20047;-77
2022/08/19 05:31:29;;;;;;;17.63;2.73;;;;;;;23.42;71.79;100170.31;4956541;29;20395;-78
2022/08/19 05:34:16;;;;;;;5.93;3.08;;;;;;;23.34;72.01;100163.28;4950147;29;20291;-77
2022/08/19 05:37:04;;;;;;;11.88;3.03;;;;;;;23.23;72.81;100175.72;4933733;29;20054;-81
2022/08/19 05:39:49;;;;;;;10.88;2.95;;;;;;;23.16;73.27;100170.25;4935383;29;20043;-80
2022/08/19 05:42:33;;;;;;;15.77;3.65;;;;;;;23.06;73.58;100174.69;4938902;29;20054;-78
2022/08/19 05:45:18;;;;;;;10.68;3.30;;;;;;;23.02;74.12;100180.28;4945040;29;20423;-79
2022/08/19 05:48:03;;;;;;;14.93;3.90;;;;;;;22.99;74.42;100180.34;4919371;29;20056;-79
2022/08/19 05:50:50;;;;;;;10.43;3.47;;;;;;;23.02;74.60;100188.63;4903631;29;20535;-79
2022/08/19 05:53:35;;;;;;;12.52;3.55;;;;;;;23.08;74.76;100199.25;4916263;29;20047;-78
2022/08/19 05:56:20;;;;;;;12.45;3.47;;;;;;;23.01;74.76;100189.81;4908186;29;20067;-79
2022/08/19 05:59:09;;;;;;;10.57;4.15;;;;;;;23.01;74.64;100175.94;4928161;29;20039;-78
2022/08/19 06:01:55;;;;;;;13.98;4.18;;;;;;;22.98;75.28;100179.56;4925428;29;20465;-80
2022/08/19 06:04:42;;;;;;;9.77;3.97;;;;;;;23.03;75.49;100172.78;4928821;29;20051;-82
2022/08/19 06:07:28;;;;;;;1012.47;238.95;;;;;;;23.14;75.07;100173.44;4943285;29;20043;-78
2022/08/19 06:10:13;;;;;;;18.48;6.82;;;;;;;23.20;75.34;100174.56;4934068;29;20044;-80
2022/08/19 06:12:58;;;;;;;6.72;3.78;;;;;;;23.22;75.07;100165.81;4934994;29;20043;-79
2022/08/19 06:15:43;;;;;;;8.70;3.22;;;;;;;23.28;74.58;100167.72;4934592;29;20059;-78
2022/08/19 06:18:28;;;;;;;14.20;3.83;;;;;;;23.36;73.59;100151.78;4935063;29;20046;-79
2022/08/19 06:21:14;;;;;;;7.40;3.22;;;;;;;23.34;72.97;100130.00;4934569;29;20044;-76
2022/08/19 06:23:59;;;;;;;6.68;3.00;;;;;;;23.38;73.14;100130.72;4935523;29;20125;-78
2022/08/19 06:26:47;;;;;;;11.57;3.08;;;;;;;23.37;72.95;100117.25;4939932;29;20516;-80
2022/08/19 06:29:32;;;;;;;10.32;3.33;;;;;;;23.39;72.80;100114.88;4934635;29;20040;-77
2022/08/19 06:32:18;;;;;;;7.13;3.75;;;;;;;23.45;73.14;100113.25;4938626;29;20051;-77
2022/08/19 06:35:04;;;;;;;10.15;3.88;;;;;;;23.49;72.90;100124.28;4938491;29;20051;-77
2022/08/19 06:37:48;;;;;;;11.30;4.72;;;;;;;23.42;72.87;100130.69;4943756;29;20497;-81
2022/08/19 06:40:35;;;;;;;10.00;3.38;;;;;;;23.37;72.68;100156.91;4938468;29;20047;-80
2022/08/19 06:43:19;;;;;;;13.20;3.25;;;;;;;23.30;73.38;100175.63;4938844;29;20044;-80
2022/08/19 06:46:11;;;;;;;6.28;2.75;;;;;;;23.31;73.72;100185.53;4931055;29;20064;-80
2022/08/19 06:48:57;;;;;;;6.72;2.80;;;;;;;23.31;73.33;100191.09;4928465;29;20527;-80
2022/08/19 06:51:43;;;;;;;10.43;3.72;;;;;;;23.39;72.44;100187.81;4951497;29;20417;-81
2022/08/19 06:54:29;;;;;;;7.88;3.38;;;;;;;23.33;72.29;100194.22;4934042;29;20043;-78
2022/08/19 06:57:14;;;;;;;7.10;3.22;;;;;;;23.29;73.20;100196.25;4937021;29;20055;-80
2022/08/19 07:00:00;;;;;;;6.60;3.33;;;;;;;23.28;73.68;100200.22;4937940;29;20050;-80
2022/08/19 07:02:45;;;;;;;9.00;3.92;;;;;;;23.27;73.91;100206.97;4927290;29;20059;-79
2022/08/19 07:05:29;;;;;;;7.13;4.15;;;;;;;23.32;73.75;100207.31;4937283;29;20066;-77
2022/08/19 07:08:14;;;;;;;12.65;3.58;;;;;;;23.34;73.79;100207.69;4942052;29;20054;-81
2022/08/19 07:10:59;;;;;;;17.73;3.80;;;;;;;23.42;72.49;100213.94;4932842;29;20517;-78
2022/08/19 07:13:45;;;;;;;10.13;3.90;;;;;;;23.45;72.52;100213.16;4932327;29;20043;-79
2022/08/19 07:16:30;;;;;;;11.00;3.47;;;;;;;23.37;72.57;100214.38;4925803;29;20055;-80
2022/08/19 07:19:16;;;;;;;16.48;4.30;;;;;;;23.37;72.88;100228.25;4932765;29;20063;-81
2022/08/19 07:22:04;;;;;;;7.68;3.40;;;;;;;23.38;72.82;100218.75;4941207;29;20055;-80
2022/08/19 07:24:49;;;;;;;10.73;3.47;;;;;;;23.18;73.29;100215.00;4919386;29;20047;-80
2022/08/19 07:27:34;;;;;;;7.60;3.13;;;;;;;23.14;73.35;100214.25;4935661;29;20408;-79
2022/08/19 07:30:19;;;;;;;8.55;3.40;;;;;;;22.98;73.87;100210.06;4938497;29;20050;-79
2022/08/19 07:33:04;;;;;;;7.47;3.30;;;;;;;23.18;73.84;100224.13;4936910;29;20075;-81
2022/08/19 07:35:49;;;;;;;8.10;2.35;;;;;;;23.23;72.20;100232.00;4925519;29;20054;-81
2022/08/19 07:38:34;;;;;;;5.90;2.80;;;;;;;23.20;71.50;100235.59;4937809;29;20047;-78
2022/08/19 07:41:24;;;;;;;9.65;2.50;;;;;;;22.57;79.43;100234.16;4942926;29;20074;-80
2022/08/19 07:44:09;;;;;;;4.82;1.83;;;;;;;22.40;78.96;100232.34;4920927;29;20531;-78
2022/08/19 07:46:56;;;;;;;4.45;2.35;;;;;;;22.25;78.47;100237.16;4921291;28;20524;-81
2022/08/19 07:49:41;;;;;;;3.65;1.50;;;;;;;22.35;76.31;100243.84;4931900;29;20055;-79
2022/08/19 07:52:26;;;;;;;6.78;1.70;;;;;;;22.44;75.15;100242.19;4945088;29;20116;-79
2022/08/19 07:55:17;;;;;;;3.80;1.23;;;;;;;22.62;74.17;100242.03;4923284;29;20050;-81
2022/08/19 07:58:04;;;;;;;8.13;1.75;;;;;;;22.73;73.18;100242.00;4929273;29;20039;-78
2022/08/19 08:00:51;;;;;;;7.35;1.85;;;;;;;22.71;72.70;100242.38;4923042;29;20055;-79
2022/08/19 08:09:45;;;;;;;8.88;2.20;;;;;;;23.17;72.87;100243.94;4919041;29;20043;-81
2022/08/19 08:12:40;;;;;;;6.47;2.08;;;;;;;23.32;71.69;100242.59;4931054;29;20075;-82
2022/08/19 08:15:26;;;;;;;6.50;1.90;;;;;;;23.36;71.69;100240.59;4905805;29;20551;-81
2022/08/19 08:18:11;;;;;;;11.95;3.17;;;;;;;23.35;71.78;100230.69;4925996;29;20051;-79
2022/08/19 08:20:57;;;;;;;6.07;1.70;;;;;;;23.26;72.33;100244.28;4928430;29;20420;-82
2022/08/19 08:23:42;;;;;;;6.32;1.65;;;;;;;23.22;71.83;100235.16;4918700;29;20536;-80
2022/08/19 08:26:27;;;;;;;7.32;2.00;;;;;;;23.22;71.53;100235.16;4918145;29;20051;-79
2022/08/19 08:29:13;;;;;;;18.73;2.22;;;;;;;23.20;71.89;100223.72;4924857;29;20051;-83
2022/08/19 08:31:58;;;;;;;3.03;1.30;;;;;;;23.12;71.11;100220.22;4909548;29;20075;-81
2022/08/19 08:34:48;;;;;;;7.88;1.67;;;;;;;23.02;73.45;100208.03;4930697;29;20046;-81
2022/08/19 08:37:34;;;;;;;7.55;1.38;;;;;;;23.02;72.85;100213.59;4922015;29;20058;-81
2022/08/19 08:40:36;;;;;;;3.53;1.70;;;;;;;23.13;72.24;100224.56;4914887;29;20050;-81
2022/08/19 08:43:37;;;;;;;7.85;1.85;;;;;;;23.25;71.04;100243.47;4922135;29;20047;-79
2022/08/19 08:46:59;;;;;;;6.47;1.52;;;;;;;23.38;70.31;100254.81;4927209;29;20516;-79
2022/08/19 08:49:58;;;;;;;6.43;1.85;;;;;;;23.27;70.85;100256.91;4929948;29;20043;-79
2022/08/19 08:52:47;;;;;;;7.03;1.73;;;;;;;23.19;71.61;100249.88;4932130;29;20050;-80
2022/08/19 08:55:31;;;;;;;9.13;2.17;;;;;;;23.22;70.84;100254.59;4922054;29;20050;-81
2022/08/19 08:58:30;;;;;;;5.68;1.67;;;;;;;23.24;71.52;100271.63;4917111;28;20055;-81
2022/08/19 09:01:15;;;;;;;4.88;1.58;;;;;;;23.18;70.96;100285.16;4920483;29;20054;-81
2022/08/19 09:04:04;;;;;;;54.28;6.28;;;;;;;22.81;72.64;100291.41;4937748;29;20054;-80
2022/08/19 09:07:10;;;;;;;6.00;2.67;;;;;;;22.79;72.44;100307.69;4920957;29;20046;-82
2022/08/19 09:10:22;;;;;;;7.75;1.83;;;;;;;22.68;73.39;100297.84;4926359;29;20520;-81
2022/08/19 09:13:27;;;;;;;5.10;2.30;;;;;;;22.89;72.22;100304.03;4927866;29;20062;-80
2022/08/19 09:16:20;;;;;;;4.25;1.92;;;;;;;22.51;73.64;100307.84;4950492;29;20053;-81
2022/08/19 09:19:07;;;;;;;5.72;2.20;;;;;;;21.98;76.66;100316.47;4954929;29;20070;-81
2022/08/19 09:21:51;;;;;;;4.63;1.60;;;;;;;21.49;79.74;100309.06;4933568;29;20059;-80
2022/08/19 09:24:36;;;;;;;6.75;2.05;;;;;;;22.10;77.03;100307.69;4919330;29;20051;-80
2022/08/19 09:27:26;;;;;;;7.72;2.58;;;;;;;22.61;74.97;100305.00;4932610;29;20417;-83
2022/08/19 09:30:15;;;;;;;4.22;2.15;;;;;;;22.85;74.21;100294.19;4926669;29;20536;-81
2022/08/19 09:33:00;;;;;;;3.28;1.17;;;;;;;23.04;73.17;100293.63;4928201;29;20042;-81
2022/08/19 09:35:46;;;;;;;3.95;1.30;;;;;;;23.21;72.28;100289.88;4930296;29;20449;-78
2022/08/19 09:38:31;;;;;;;2.10;1.00;;;;;;;23.43;70.94;100276.56;4909585;29;20095;-80
2022/08/19 09:41:20;;;;;;;5.57;1.35;;;;;;;23.49;70.12;100272.19;4922683;29;20051;-80
2022/08/19 09:44:06;;;;;;;2.83;1.20;;;;;;;23.52;70.00;100256.69;4911302;29;20051;-81
2022/08/19 09:46:51;;;;;;;5.53;1.95;;;;;;;23.56;69.12;100247.13;4933766;29;20042;-81
2022/08/19 09:49:37;;;;;;;3.03;1.55;;;;;;;23.51;69.40;100242.03;4940687;28;20066;-80
2022/08/19 09:52:21;;;;;;;5.07;1.58;;;;;;;23.54;69.29;100223.75;4914030;29;20790;-81
2022/08/19 09:55:09;;;;;;;5.97;1.25;;;;;;;23.66;68.94;100224.00;4918637;29;20050;-81
2022/08/19 09:57:54;;;;;;;4.47;1.05;;;;;;;23.57;69.38;100215.38;4931063;29;20065;-80
2022/08/19 10:00:39;;;;;;;5.45;1.38;;;;;;;23.59;69.17;100206.63;4926965;29;20063;-81
2022/08/19 10:03:25;;;;;;;6.45;1.50;;;;;;;23.61;69.34;100199.47;4916159;29;20055;-82
2022/08/19 10:06:10;;;;;;;2.00;1.10;;;;;;;23.66;69.30;100196.25;4907142;29;20055;-83
2022/08/19 10:08:55;;;;;;;5.20;1.67;;;;;;;23.73;68.61;100179.47;4917415;29;20054;-82
2022/08/19 10:11:42;;;;;;;3.75;1.48;;;;;;;23.68;68.34;100177.16;4914723;29;20046;-82
2022/08/19 10:14:27;;;;;;;2.28;0.90;;;;;;;23.81;67.94;100169.06;4925342;29;20453;-80
2022/08/19 10:17:11;;;;;;;3.80;2.10;;;;;;;24.01;67.42;100171.94;4926886;29;20046;-80
2022/08/19 10:19:58;;;;;;;14.13;2.53;;;;;;;24.06;67.38;100174.25;4929688;29;20051;-80
2022/08/19 10:22:43;;;;;;;7.05;1.52;;;;;;;24.14;68.14;100173.72;4927328;29;20051;-81
2022/08/19 10:25:28;;;;;;;2.80;1.10;;;;;;;24.18;67.75;100165.34;4942674;29;20077;-82
2022/08/19 10:28:13;;;;;;;5.28;1.48;;;;;;;24.15;66.63;100168.94;4917202;29;20055;-82
2022/08/19 10:30:58;;;;;;;5.22;1.30;;;;;;;24.05;68.03;100169.91;4966678;23;20063;-83
2022/08/19 10:33:43;;;;;;;79.57;7.20;;;;;;;23.91;68.90;100173.69;4924990;29;20075;-82
2022/08/19 10:36:36;;;;;;;3.10;1.67;;;;;;;24.10;67.24;100174.97;4938794;29;20155;-83
2022/08/19 10:39:21;;;;;;;4.82;1.33;;;;;;;24.03;67.78;100169.50;4932333;29;20062;-83
2022/08/19 10:42:07;;;;;;;2.83;1.88;;;;;;;24.11;67.66;100176.56;4942756;29;20043;-83
2022/08/19 10:44:51;;;;;;;2.90;1.52;;;;;;;24.18;67.03;100182.81;4922280;29;20047;-82
2022/08/19 10:47:36;;;;;;;;;;;;;;;24.28;66.79;100189.41;4943287;29;20043;-83
2022/08/19 10:53:25;;;;;;;2.57;1.47;;;;;;;24.27;66.67;100190.63;4917183;29;20051;-83
2022/08/19 10:59:15;;;;;;;4.72;1.80;;;;;;;24.41;66.03;100179.28;4917161;29;20039;-85
2022/08/19 11:02:01;;;;;;;4.43;1.73;;;;;;;24.48;66.45;100178.38;4923955;29;20055;-84
2022/08/19 11:04:47;;;;;;;5.60;2.60;;;;;;;24.35;66.20;100175.41;4914038;29;20047;-86
2022/08/19 11:07:32;;;;;;;9.98;2.20;;;;;;;24.37;67.11;100180.53;4928551;29;20055;-82
2022/08/19 11:10:18;;;;;;;3.85;1.90;;;;;;;24.34;67.11;100168.25;4916137;29;20044;-82
2022/08/19 11:13:03;;;;;;;7.00;2.70;;;;;;;24.41;67.10;100165.38;4923442;29;20181;-82
2022/08/19 11:15:56;;;;;;;;;;;;;;;24.25;68.25;100173.56;4917629;29;20064;-82
2022/08/19 11:18:44;;;;;;;5.28;2.88;;;;;;;23.98;69.19;100162.44;4932477;29;19915;-82
2022/08/19 11:21:31;;;;;;;5.10;3.22;;;;;;;24.11;68.86;100166.22;4919219;29;20051;-83
2022/08/19 11:24:20;;;;;;;10.18;2.67;;;;;;;24.02;68.71;100167.97;4909290;29;20519;-82
2022/08/19 11:27:08;;;;;;;5.40;2.53;;;;;;;23.91;69.05;100167.34;4911223;29;20051;-82
2022/08/19 11:29:54;;;;;;;8.68;2.53;;;;;;;24.11;68.92;100188.47;4914813;29;20048;-82
2022/08/19 11:32:40;;;;;;;3.45;1.95;;;;;;;24.55;66.65;100190.16;4919898;29;20051;-82
2022/08/19 11:35:24;;;;;;;4.88;2.45;;;;;;;25.10;64.78;100197.13;4920933;29;20063;-82
2022/08/19 11:38:10;;;;;;;5.55;1.95;;;;;;;26.07;61.42;100199.50;4923555;29;20047;-83
2022/08/19 11:40:59;;;;;;;7.60;1.80;;;;;;;25.78;63.05;100214.09;4922310;29;20713;-84
2022/08/19 11:43:44;;;;;;;2.75;1.80;;;;;;;25.82;62.25;100214.78;4926314;29;20074;-82
2022/08/19 11:46:31;;;;;;;6.15;2.45;;;;;;;25.75;63.00;100219.75;4940579;29;20051;-84
2022/08/19 11:49:21;;;;;;;5.20;2.03;;;;;;;25.83;62.74;100218.38;4939886;29;20043;-85
2022/08/19 11:52:06;;;;;;;3.53;1.65;;;;;;;25.87;62.94;100216.28;4941655;29;20051;-84
2022/08/19 11:54:51;;;;;;;5.43;2.67;;;;;;;26.87;60.12;100204.34;4928753;29;20043;-85
2022/08/19 11:57:36;;;;;;;11.38;2.72;;;;;;;26.96;59.09;100204.53;4928156;29;20335;-90
2022/08/19 12:00:21;;;;;;;8.10;2.17;;;;;;;26.90;59.24;100211.09;4919206;29;20521;-90
2022/08/19 12:03:06;;;;;;;8.98;2.35;;;;;;;26.96;58.88;100210.13;4911939;29;20047;-88
2022/08/19 12:05:51;;;;;;;6.45;1.85;;;;;;;28.00;55.55;100209.53;4940273;29;20055;-89
2022/08/19 12:08:37;;;;;;;5.63;2.03;;;;;;;29.44;50.66;100215.53;4920914;29;20055;-89
2022/08/19 12:11:22;;;;;;;4.88;1.63;;;;;;;30.66;46.52;100218.81;4925112;29;20052;-89
2022/08/19 12:14:11;;;;;;;2.33;1.20;;;;;;;31.94;43.61;100211.91;4927015;29;20060;-90
2022/08/19 12:16:56;;;;;;;6.25;2.15;;;;;;;32.57;42.68;100218.47;4912885;29;20051;-90
2022/08/19 12:19:41;;;;;;;2.45;1.23;;;;;;;31.96;43.65;100217.03;4923811;29;20055;-91
2022/08/19 12:22:28;;;;;;;5.43;1.15;;;;;;;30.19;47.47;100208.66;4943339;29;20047;-90
2022/08/19 12:25:14;;;;;;;3.00;1.27;;;;;;;29.07;50.18;100214.44;4935821;29;20058;-91
2022/08/19 12:28:02;;;;;;;2.45;1.30;;;;;;;27.98;52.94;100195.22;4923312;29;20051;-90
2022/08/19 12:30:49;;;;;;;4.88;1.75;;;;;;;26.95;54.47;100200.19;4926347;29;20051;-91
2022/08/19 12:33:35;;;;;;;2.47;1.23;;;;;;;28.69;50.28;100189.34;4925845;29;20670;-90
2022/08/19 12:36:21;;;;;;;2.83;1.08;;;;;;;29.82;47.39;100201.31;4928866;29;20067;-90
2022/08/19 12:39:08;;;;;;;1.05;0.95;;;;;;;28.16;51.59;100189.09;4931695;29;20051;-84
2022/08/19 12:41:53;;;;;;;3.42;1.27;;;;;;;27.04;53.67;100185.56;4923502;29;20067;-84
2022/08/19 12:44:39;;;;;;;5.45;1.33;;;;;;;26.51;55.49;100171.00;4909527;29;20055;-85
2022/08/19 12:47:26;;;;;;;4.70;1.15;;;;;;;26.46;56.66;100177.13;4938963;29;20059;-84
2022/08/19 12:50:10;;;;;;;3.90;1.65;;;;;;;26.48;56.63;100176.66;4927289;29;20047;-84
2022/08/19 12:52:56;;;;;;;3.50;1.48;;;;;;;26.92;54.85;100178.72;4927618;29;20515;-84
2022/08/19 12:55:44;;;;;;;2.83;1.13;;;;;;;27.52;53.32;100176.28;4924079;29;20055;-84
2022/08/19 12:58:30;;;;;;;5.00;1.55;;;;;;;27.48;52.95;100181.16;4921474;29;20425;-84
2022/08/19 13:01:17;;;;;;;4.80;0.98;;;;;;;27.75;52.94;100178.75;4921601;29;20047;-84
2022/08/19 13:04:02;;;;;;;4.82;1.25;;;;;;;27.56;53.44;100180.53;4921484;29;20051;-83
2022/08/19 13:06:47;;;;;;;2.80;0.98;;;;;;;27.32;54.79;100175.63;4923934;29;20051;-83
2022/08/19 13:09:33;;;;;;;5.68;1.30;;;;;;;26.82;56.37;100174.16;4922930;29;20055;-84
2022/08/19 13:12:20;;;;;;;4.05;1.50;;;;;;;26.45;57.12;100177.53;4922080;29;20059;-85